createdAt,value
2023-05-10T00:00:47.465Z,2.77
2023-05-10T00:01:47.470Z,2.82
2023-05-10T00:02:47.562Z,2.72
2023-05-10T00:03:47.546Z,2.70
2023-05-10T00:04:47.524Z,2.74
2023-05-10T00:05:47.538Z,2.78
2023-05-10T00:06:47.530Z,2.79
2023-05-10T00:07:47.542Z,2.80
2023-05-10T00:08:47.546Z,2.86
2023-05-10T00:09:47.537Z,2.76
2023-05-10T00:10:47.554Z,2.82
2023-05-10T00:11:47.571Z,2.71
2023-05-10T00:12:47.620Z,2.72
2023-05-10T00:13:47.581Z,2.69
2023-05-10T00:14:47.611Z,2.75
2023-05-10T00:15:47.616Z,2.77
2023-05-10T00:16:47.670Z,2.72
2023-05-10T00:17:47.664Z,2.72
2023-05-10T00:18:47.641Z,2.64
2023-05-10T00:19:47.644Z,2.61
2023-05-10T00:20:47.692Z,2.58
2023-05-10T00:21:47.716Z,2.69
2023-05-10T00:22:47.774Z,2.67
2023-05-10T00:23:47.768Z,2.59
2023-05-10T00:24:47.796Z,2.71
2023-05-10T00:25:47.839Z,2.59
2023-05-10T00:26:47.873Z,2.68
2023-05-10T00:27:47.928Z,2.71
2023-05-10T00:28:47.947Z,2.66
2023-05-10T00:29:47.984Z,2.70
2023-05-10T00:30:48.028Z,2.69
2023-05-10T00:31:48.115Z,2.53
2023-05-10T00:32:48.127Z,2.62
2023-05-10T00:33:48.147Z,2.50
2023-05-10T00:34:48.161Z,2.62
2023-05-10T00:35:48.202Z,2.59
2023-05-10T00:36:48.233Z,2.63
2023-05-10T00:37:48.269Z,2.56
2023-05-10T00:38:48.366Z,2.56
2023-05-10T00:39:48.313Z,2.59
2023-05-10T00:40:48.361Z,2.59
2023-05-10T00:41:48.389Z,2.57
2023-05-10T00:42:48.413Z,2.58
2023-05-10T00:43:48.448Z,2.59
2023-05-10T00:44:48.482Z,2.56
2023-05-10T00:45:48.544Z,2.63
2023-05-10T00:46:48.561Z,2.59
2023-05-10T00:47:48.616Z,2.59
2023-05-10T00:48:48.589Z,2.59
2023-05-10T00:49:48.573Z,2.53
2023-05-10T00:50:48.584Z,2.45
2023-05-10T00:51:48.597Z,2.53
2023-05-10T00:52:48.605Z,2.55
2023-05-10T00:53:48.647Z,2.50
2023-05-10T00:54:48.665Z,2.47
2023-05-10T00:55:48.692Z,2.40
2023-05-10T00:56:48.644Z,2.46
2023-05-10T00:57:48.650Z,2.50
2023-05-10T00:58:48.674Z,2.48
2023-05-10T00:59:48.676Z,2.54
2023-05-10T01:00:48.694Z,2.47
2023-05-10T01:01:48.788Z,2.47
2023-05-10T01:02:48.821Z,2.46
2023-05-10T01:03:48.731Z,2.49
2023-05-10T01:04:48.776Z,2.43
2023-05-10T01:05:48.759Z,2.45
2023-05-10T01:06:48.775Z,2.44
2023-05-10T01:07:48.791Z,2.40
2023-05-10T01:08:48.832Z,2.37
2023-05-10T01:09:48.853Z,2.41
2023-05-10T01:10:48.913Z,2.45
2023-05-10T01:11:48.929Z,2.46
2023-05-10T01:12:48.986Z,2.35
2023-05-10T01:13:49.013Z,2.42
2023-05-10T01:14:49.050Z,2.36
2023-05-10T01:15:49.106Z,2.40
2023-05-10T01:16:49.136Z,2.32
2023-05-10T01:17:49.231Z,2.34
2023-05-10T01:18:49.200Z,2.44
2023-05-10T01:19:49.230Z,2.42
2023-05-10T01:20:49.268Z,2.46
2023-05-10T01:21:49.319Z,2.40
2023-05-10T01:22:49.381Z,2.31
2023-05-10T01:23:49.393Z,2.32
2023-05-10T01:24:49.427Z,2.27
2023-05-10T01:25:49.463Z,2.23
2023-05-10T01:26:49.512Z,2.28
2023-05-10T01:27:49.528Z,2.28
2023-05-10T01:28:49.599Z,2.29
2023-05-10T01:29:55.726Z,2.33
2023-05-10T01:30:50.621Z,2.34
2023-05-10T01:31:49.729Z,2.33
2023-05-10T01:32:49.685Z,2.32
2023-05-10T01:33:49.655Z,2.36
2023-05-10T01:34:49.667Z,2.35
2023-05-10T01:35:49.738Z,2.36
2023-05-10T01:36:49.701Z,2.44
2023-05-10T01:37:49.698Z,2.23
2023-05-10T01:38:49.711Z,2.32
2023-05-10T01:39:49.709Z,2.30
2023-05-10T01:40:49.732Z,2.24
2023-05-10T01:41:49.738Z,2.29
2023-05-10T01:42:49.769Z,2.33
2023-05-10T01:43:49.749Z,2.34
2023-05-10T01:44:49.783Z,2.30
2023-05-10T01:45:49.776Z,2.31
2023-05-10T01:46:49.794Z,2.31
2023-05-10T01:47:49.820Z,2.29
2023-05-10T01:48:49.795Z,2.27
2023-05-10T01:49:49.791Z,2.29
2023-05-10T01:50:49.794Z,2.26
2023-05-10T01:51:49.827Z,2.31
2023-05-10T01:52:49.821Z,2.34
2023-05-10T01:53:49.832Z,2.25
2023-05-10T01:54:49.843Z,2.30
2023-05-10T01:55:49.855Z,2.30
2023-05-10T01:56:49.867Z,2.33
2023-05-10T01:57:49.849Z,2.27
2023-05-10T01:58:49.873Z,2.38
2023-05-10T01:59:49.896Z,2.44
2023-05-10T02:00:49.995Z,2.37
2023-05-10T02:01:49.971Z,2.38
2023-05-10T02:02:50.078Z,2.31
2023-05-10T02:03:50.139Z,2.27
2023-05-10T02:04:50.097Z,2.34
2023-05-10T02:05:50.140Z,2.36
2023-05-10T02:06:50.162Z,2.33
2023-05-10T02:07:50.239Z,2.34
2023-05-10T02:08:50.264Z,2.28
2023-05-10T02:09:50.298Z,2.25
2023-05-10T02:10:50.331Z,2.33
2023-05-10T02:11:50.393Z,2.30
2023-05-10T02:12:50.531Z,2.29
2023-05-10T02:13:50.476Z,2.29
2023-05-10T02:14:50.512Z,2.32
2023-05-10T02:15:50.596Z,2.32
2023-05-10T02:16:50.666Z,2.38
2023-05-10T02:17:50.796Z,2.38
2023-05-10T02:18:50.720Z,2.38
2023-05-10T02:19:50.761Z,2.28
2023-05-10T02:20:50.779Z,2.31
2023-05-10T02:21:50.824Z,2.35
2023-05-10T02:22:50.872Z,2.41
2023-05-10T02:23:50.940Z,2.45
2023-05-10T02:24:50.927Z,2.45
2023-05-10T02:25:50.928Z,2.40
2023-05-10T02:26:50.932Z,2.43
2023-05-10T02:27:50.947Z,2.46
2023-05-10T02:28:50.949Z,2.39
2023-05-10T02:29:50.982Z,2.40
2023-05-10T02:30:50.965Z,2.45
2023-05-10T02:31:51.017Z,2.45
2023-05-10T02:32:51.036Z,2.44
2023-05-10T02:33:51.024Z,2.42
2023-05-10T02:34:51.057Z,2.45
2023-05-10T02:35:51.014Z,2.46
2023-05-10T02:36:51.045Z,2.47
2023-05-10T02:37:51.048Z,2.49
2023-05-10T02:38:51.061Z,2.53
2023-05-10T02:39:51.075Z,2.52
2023-05-10T02:40:51.080Z,2.52
2023-05-10T02:41:51.079Z,2.53
2023-05-10T02:42:51.097Z,2.54
2023-05-10T02:43:51.112Z,2.54
2023-05-10T02:44:51.105Z,2.54
2023-05-10T02:45:51.169Z,2.53
2023-05-10T02:46:51.116Z,2.54
2023-05-10T02:47:51.132Z,2.55
2023-05-10T02:48:51.125Z,2.58
2023-05-10T02:49:51.164Z,2.62
2023-05-10T02:50:51.150Z,2.66
2023-05-10T02:51:51.154Z,2.59
2023-05-10T02:52:51.157Z,2.56
2023-05-10T02:53:51.182Z,2.56
2023-05-10T02:54:51.183Z,2.61
2023-05-10T02:55:51.198Z,2.58
2023-05-10T02:56:51.197Z,2.62
2023-05-10T02:57:51.204Z,2.61
2023-05-10T02:58:51.236Z,2.64
2023-05-10T02:59:51.224Z,2.55
2023-05-10T03:00:51.275Z,2.57
2023-05-10T03:01:51.364Z,2.60
2023-05-10T03:02:51.387Z,2.59
2023-05-10T03:03:51.376Z,2.59
2023-05-10T03:04:51.480Z,2.60
2023-05-10T03:05:51.417Z,2.62
2023-05-10T03:06:51.611Z,2.62
2023-05-10T03:07:51.418Z,2.67
2023-05-10T03:08:51.398Z,2.67
2023-05-10T03:09:51.395Z,2.66
2023-05-10T03:10:51.408Z,2.64
2023-05-10T03:11:51.404Z,2.65
2023-05-10T03:12:51.454Z,2.55
2023-05-10T03:13:51.436Z,2.61
2023-05-10T03:14:51.449Z,2.59
2023-05-10T03:15:51.456Z,2.62
2023-05-10T03:16:51.436Z,2.66
2023-05-10T03:17:51.496Z,2.55
2023-05-10T03:18:51.517Z,2.52
2023-05-10T03:19:51.589Z,2.60
2023-05-10T03:20:51.611Z,2.60
2023-05-10T03:21:51.654Z,2.66
2023-05-10T03:22:51.681Z,2.63
2023-05-10T03:23:51.737Z,2.67
2023-05-10T03:24:51.783Z,2.65
2023-05-10T03:25:51.788Z,2.66
2023-05-10T03:26:51.779Z,2.66
2023-05-10T03:27:51.788Z,2.68
2023-05-10T03:28:51.798Z,2.68
2023-05-10T03:29:51.801Z,2.71
2023-05-10T03:30:51.802Z,2.66
2023-05-10T03:33:10.910Z,0.50
2023-05-10T03:34:10.888Z,0.50
2023-05-10T03:35:10.890Z,0.50
2023-05-10T03:36:10.910Z,0.50
2023-05-10T03:37:10.897Z,0.50
2023-05-10T03:38:10.889Z,0.50
2023-05-10T03:39:10.883Z,0.51
2023-05-10T03:40:10.872Z,0.51
2023-05-10T03:41:10.873Z,0.50
2023-05-10T03:42:10.912Z,0.51
2023-05-10T03:43:10.899Z,0.50
2023-05-10T03:44:10.887Z,0.50
2023-05-10T03:45:10.915Z,0.50
2023-05-10T03:46:10.983Z,0.52
2023-05-10T03:47:10.908Z,0.50
2023-05-10T03:48:10.986Z,0.51
2023-05-10T03:49:10.907Z,0.51
2023-05-10T03:50:10.918Z,0.51
2023-05-10T03:51:10.915Z,0.51
2023-05-10T03:52:10.905Z,0.52
2023-05-10T03:53:10.897Z,0.51
2023-05-10T03:54:10.953Z,0.51
2023-05-10T03:55:10.884Z,0.51
2023-05-10T03:56:10.910Z,0.53
2023-05-10T03:57:10.880Z,0.52
2023-05-10T03:58:10.869Z,0.52
2023-05-10T03:59:10.878Z,0.52
2023-05-10T04:00:10.870Z,0.52
2023-05-10T04:01:10.859Z,0.52
2023-05-10T04:02:10.917Z,0.53
2023-05-10T04:03:10.894Z,0.53
2023-05-10T04:04:10.922Z,0.53
2023-05-10T04:05:10.830Z,0.53
2023-05-10T04:06:10.843Z,0.53
2023-05-10T04:07:10.829Z,0.53
2023-05-10T04:08:10.824Z,0.53
2023-05-10T04:09:10.827Z,0.53
2023-05-10T04:10:10.813Z,0.53
2023-05-10T04:11:10.806Z,0.54
2023-05-10T04:12:11.105Z,0.52
2023-05-10T04:13:10.816Z,0.53
2023-05-10T04:14:10.806Z,0.55
2023-05-10T04:15:10.842Z,0.54
2023-05-10T04:16:10.886Z,0.55
2023-05-10T04:17:10.960Z,0.55
2023-05-10T04:18:11.094Z,0.55
2023-05-10T04:19:11.070Z,0.54
2023-05-10T04:20:11.117Z,0.55
2023-05-10T04:21:11.189Z,0.54
2023-05-10T04:22:11.226Z,0.55
2023-05-10T04:23:11.326Z,0.54
2023-05-10T04:24:11.983Z,0.54
2023-05-10T04:25:11.365Z,0.54
2023-05-10T04:26:11.407Z,0.55
2023-05-10T04:27:11.472Z,0.55
2023-05-10T04:28:11.503Z,0.54
2023-05-10T04:29:11.508Z,0.54
2023-05-10T04:30:11.517Z,0.54
2023-05-10T04:31:11.556Z,0.54
2023-05-10T04:32:11.491Z,0.54
2023-05-10T04:33:11.495Z,0.54
2023-05-10T04:34:11.496Z,0.54
2023-05-10T04:35:11.494Z,0.55
2023-05-10T04:36:11.486Z,0.55
2023-05-10T04:37:11.484Z,0.56
2023-05-10T04:38:11.479Z,0.56
2023-05-10T04:39:11.486Z,0.56
2023-05-10T04:40:11.484Z,0.55
2023-05-10T04:41:11.511Z,0.56
2023-05-10T04:42:11.464Z,0.57
2023-05-10T04:43:11.466Z,0.57
2023-05-10T04:44:11.473Z,0.57
2023-05-10T04:45:11.444Z,0.57
2023-05-10T04:46:11.490Z,0.58
2023-05-10T04:47:12.785Z,0.58
2023-05-10T04:48:11.435Z,0.57
2023-05-10T04:49:11.465Z,0.57
2023-05-10T04:50:11.415Z,0.58
2023-05-10T04:51:11.412Z,0.58
2023-05-10T04:52:11.410Z,0.59
2023-05-10T04:53:11.410Z,0.59
2023-05-10T04:54:11.497Z,0.59
2023-05-10T04:55:11.431Z,0.59
2023-05-10T04:56:11.412Z,0.58
2023-05-10T04:57:11.390Z,0.59
2023-05-10T04:58:11.387Z,0.59
2023-05-10T04:59:11.398Z,0.59
2023-05-10T05:00:11.426Z,0.57
2023-05-10T05:01:11.528Z,0.58
2023-05-10T05:02:11.526Z,0.58
2023-05-10T05:03:11.668Z,0.58
2023-05-10T05:04:11.649Z,0.58
2023-05-10T05:05:11.698Z,0.59
2023-05-10T05:06:11.776Z,0.58
2023-05-10T05:07:11.789Z,0.59
2023-05-10T05:08:11.837Z,0.58
2023-05-10T05:09:11.880Z,0.59
2023-05-10T05:10:11.950Z,0.58
2023-05-10T05:11:11.984Z,0.59
2023-05-10T05:12:12.062Z,0.59
2023-05-10T05:13:12.101Z,0.59
2023-05-10T05:14:12.170Z,0.59
2023-05-10T05:15:12.211Z,0.60
2023-05-10T05:16:12.453Z,0.59
2023-05-10T05:17:12.347Z,0.59
2023-05-10T05:18:12.464Z,0.59
2023-05-10T05:19:12.456Z,0.59
2023-05-10T05:20:12.564Z,0.59
2023-05-10T05:21:12.573Z,0.59
2023-05-10T05:22:12.629Z,0.59
2023-05-10T05:23:12.693Z,0.59
2023-05-10T05:24:12.794Z,0.59
2023-05-10T05:25:12.829Z,0.59
2023-05-10T05:26:12.808Z,0.59
2023-05-10T05:27:12.810Z,0.59
2023-05-10T05:28:12.814Z,0.60
2023-05-10T05:29:12.872Z,0.59
2023-05-10T05:30:12.844Z,0.61
2023-05-10T05:31:13.074Z,0.61
2023-05-10T05:32:12.894Z,0.64
2023-05-10T05:33:12.841Z,0.66
2023-05-10T05:34:12.852Z,0.68
2023-05-10T05:35:12.809Z,0.75
2023-05-10T05:36:12.859Z,0.89
2023-05-10T05:37:12.924Z,0.98
2023-05-10T05:38:12.948Z,1.06
2023-05-10T05:39:13.003Z,1.17
2023-05-10T05:40:13.029Z,1.19
2023-05-10T05:41:13.085Z,1.26
2023-05-10T05:42:13.085Z,1.38
2023-05-10T05:43:13.156Z,1.40
2023-05-10T05:44:13.140Z,1.34
2023-05-10T05:45:13.171Z,1.43
2023-05-10T05:46:13.201Z,1.40
2023-05-10T05:47:13.195Z,1.47
2023-05-10T05:48:13.221Z,1.46
2023-05-10T05:49:13.231Z,1.44
2023-05-10T05:50:13.232Z,1.59
2023-05-10T05:51:13.222Z,1.56
2023-05-10T05:52:13.263Z,1.51
2023-05-10T05:53:13.261Z,1.55
2023-05-10T05:54:13.262Z,1.54
2023-05-10T05:55:13.259Z,1.71
2023-05-10T05:56:13.240Z,1.71
2023-05-10T05:57:13.231Z,1.75
2023-05-10T05:58:13.228Z,1.79
2023-05-10T05:59:13.208Z,1.90
2023-05-10T06:00:13.734Z,2.11
2023-05-10T06:01:13.216Z,2.16
2023-05-10T06:02:13.300Z,2.31
2023-05-10T06:03:13.319Z,2.50
2023-05-10T06:04:13.282Z,2.51
2023-05-10T06:05:13.180Z,2.56
2023-05-10T06:06:13.170Z,2.68
2023-05-10T06:07:13.177Z,3.04
2023-05-10T06:08:13.148Z,2.54
2023-05-10T06:09:13.157Z,2.67
2023-05-10T06:10:13.123Z,2.96
2023-05-10T06:11:13.120Z,3.48
2023-05-10T06:12:13.129Z,4.63
2023-05-10T06:13:13.152Z,5.01
2023-05-10T06:14:13.108Z,5.22
2023-05-10T06:15:13.134Z,5.49
2023-05-10T06:16:13.072Z,5.65
2023-05-10T06:17:13.057Z,5.77
2023-05-10T06:18:13.161Z,5.85
2023-05-10T06:19:13.032Z,6.01
2023-05-10T06:20:13.069Z,6.21
2023-05-10T06:21:13.096Z,6.40
2023-05-10T06:22:13.139Z,6.57
2023-05-10T06:23:13.167Z,6.69
2023-05-10T06:24:13.205Z,6.72
2023-05-10T06:25:13.262Z,6.90
2023-05-10T06:26:13.257Z,7.29
2023-05-10T06:27:14.138Z,7.56
2023-05-10T06:28:13.276Z,7.58
2023-05-10T06:29:13.237Z,7.68
2023-05-10T06:30:13.802Z,7.84
2023-05-10T06:31:13.265Z,8.17
2023-05-10T06:32:13.217Z,8.34
2023-05-10T06:33:13.198Z,8.43
2023-05-10T06:34:13.160Z,8.41
2023-05-10T06:35:13.152Z,8.42
2023-05-10T06:36:13.153Z,8.47
2023-05-10T06:37:13.139Z,8.43
2023-05-10T06:38:13.099Z,8.69
2023-05-10T06:39:13.075Z,8.74
2023-05-10T06:40:13.099Z,8.87
2023-05-10T06:41:13.040Z,8.62
2023-05-10T06:42:13.038Z,8.38
2023-05-10T06:43:13.012Z,8.81
2023-05-10T06:44:13.110Z,8.75
2023-05-10T06:45:12.971Z,8.78
2023-05-10T06:46:12.969Z,8.94
2023-05-10T06:47:12.921Z,9.35
2023-05-10T06:48:13.024Z,9.91
2023-05-10T06:49:12.920Z,11.62
2023-05-10T06:50:12.997Z,11.16
2023-05-10T06:51:12.898Z,10.63
2023-05-10T06:52:12.844Z,10.71
2023-05-10T06:53:12.877Z,10.36
2023-05-10T06:54:12.861Z,10.04
2023-05-10T06:55:12.810Z,9.83
2023-05-10T06:56:12.815Z,9.84
2023-05-10T06:57:23.262Z,9.79
2023-05-10T06:58:13.772Z,9.79
2023-05-10T06:59:12.796Z,9.23
2023-05-10T07:00:12.850Z,9.45
2023-05-10T07:01:12.792Z,9.11
2023-05-10T07:02:12.782Z,9.06
2023-05-10T07:03:12.864Z,9.61
2023-05-10T07:04:12.668Z,9.18
2023-05-10T07:05:12.654Z,8.87
2023-05-10T07:06:21.599Z,8.80
2023-05-10T07:07:13.651Z,8.93
2023-05-10T07:08:12.598Z,8.98
2023-05-10T07:09:12.600Z,8.74
2023-05-10T07:10:12.566Z,8.10
2023-05-10T07:11:12.539Z,8.16
2023-05-10T07:12:14.745Z,8.11
2023-05-10T07:13:12.681Z,8.19
2023-05-10T07:14:12.669Z,8.28
2023-05-10T07:15:13.228Z,8.33
2023-05-10T07:16:12.548Z,8.12
2023-05-10T07:17:12.540Z,8.08
2023-05-10T07:18:12.498Z,7.15
2023-05-10T07:19:13.402Z,6.92
2023-05-10T07:20:12.417Z,7.11
2023-05-10T07:21:12.399Z,6.98
2023-05-10T07:22:12.346Z,5.73
2023-05-10T07:23:13.167Z,5.94
2023-05-10T07:24:12.333Z,5.91
2023-05-10T07:25:12.367Z,6.00
2023-05-10T07:26:12.335Z,6.01
2023-05-10T07:27:12.298Z,5.80
2023-05-10T07:28:12.257Z,5.52
2023-05-10T07:29:12.227Z,5.32
2023-05-10T07:30:12.224Z,5.06
2023-05-10T07:31:12.215Z,5.01
2023-05-10T07:32:12.217Z,4.84
2023-05-10T07:33:12.266Z,4.70
2023-05-10T07:34:12.206Z,4.54
2023-05-10T07:35:12.178Z,4.44
2023-05-10T07:36:12.176Z,4.26
2023-05-10T07:37:12.164Z,4.22
2023-05-10T07:38:12.202Z,4.17
2023-05-10T07:39:16.258Z,4.14
2023-05-10T07:40:12.196Z,3.30
2023-05-10T07:41:12.106Z,0.87
2023-05-10T07:42:12.150Z,0.90
2023-05-10T07:43:12.133Z,0.77
2023-05-10T07:44:12.100Z,0.67
2023-05-10T07:45:12.110Z,0.60
2023-05-10T07:46:12.190Z,0.51
2023-05-10T07:47:12.131Z,0.57
2023-05-10T07:48:12.112Z,0.57
2023-05-10T07:49:12.116Z,0.47
2023-05-10T07:50:12.078Z,0.35
2023-05-10T07:51:12.085Z,0.41
2023-05-10T07:52:12.095Z,0.54
2023-05-10T07:53:12.113Z,0.63
2023-05-10T07:54:12.105Z,0.77
2023-05-10T07:55:12.077Z,1.00
2023-05-10T07:56:12.075Z,1.11
2023-05-10T07:57:12.110Z,1.19
2023-05-10T07:58:12.030Z,1.24
2023-05-10T07:59:12.880Z,1.30
2023-05-10T08:00:12.029Z,1.32
2023-05-10T08:01:12.028Z,1.35
2023-05-10T08:02:12.123Z,1.23
2023-05-10T08:03:12.302Z,1.04
2023-05-10T08:04:12.164Z,0.77
2023-05-10T08:05:12.208Z,0.69
2023-05-10T08:06:12.129Z,0.62
2023-05-10T08:07:12.110Z,0.55
2023-05-10T08:08:12.176Z,0.38
2023-05-10T08:09:12.109Z,0.34
2023-05-10T08:10:12.188Z,0.37
2023-05-10T08:11:12.085Z,0.40
2023-05-10T08:12:12.095Z,0.51
2023-05-10T08:13:12.085Z,0.66
2023-05-10T08:14:12.192Z,0.78
2023-05-10T08:15:13.198Z,0.83
2023-05-10T08:16:12.289Z,0.97
2023-05-10T08:17:12.327Z,1.15
2023-05-10T08:18:12.385Z,1.34
2023-05-10T08:19:12.415Z,1.34
2023-05-10T08:20:12.439Z,1.46
2023-05-10T08:21:12.496Z,1.29
2023-05-10T08:22:12.445Z,1.36
2023-05-10T08:23:12.439Z,1.27
2023-05-10T08:24:12.482Z,1.30
2023-05-10T08:25:12.474Z,1.15
2023-05-10T08:26:12.484Z,1.23
2023-05-10T08:27:12.490Z,1.08
2023-05-10T08:28:12.535Z,1.13
2023-05-10T08:29:12.533Z,1.01
2023-05-10T08:30:12.593Z,0.81
2023-05-10T08:31:12.612Z,0.77
2023-05-10T08:32:12.641Z,1.14
2023-05-10T08:33:12.650Z,1.79
2023-05-10T08:34:12.562Z,1.41
2023-05-10T08:35:12.634Z,1.09
2023-05-10T08:36:12.600Z,0.92
2023-05-10T08:37:12.636Z,1.10
2023-05-10T08:38:12.672Z,0.93
2023-05-10T08:39:22.862Z,0.75
2023-05-10T08:40:12.717Z,0.75
2023-05-10T08:41:12.723Z,0.76
2023-05-10T08:42:12.745Z,0.80
2023-05-10T08:43:12.726Z,0.58
2023-05-10T08:44:12.753Z,0.52
2023-05-10T08:45:12.757Z,0.49
2023-05-10T08:46:12.756Z,0.50
2023-05-10T08:47:12.822Z,0.52
2023-05-10T08:48:12.809Z,0.60
2023-05-10T08:49:12.717Z,0.79
2023-05-10T08:50:12.741Z,1.02
2023-05-10T08:51:12.725Z,0.97
2023-05-10T08:52:12.730Z,0.80
2023-05-10T08:53:12.761Z,0.63
2023-05-10T08:54:12.739Z,0.59
2023-05-10T08:55:12.827Z,0.54
2023-05-10T08:56:12.786Z,0.57
2023-05-10T08:57:12.772Z,0.58
2023-05-10T08:58:12.791Z,0.51
2023-05-10T08:59:12.781Z,0.66
2023-05-10T09:00:12.951Z,0.77
2023-05-10T09:01:12.960Z,1.02
2023-05-10T09:02:12.959Z,1.43
2023-05-10T09:03:12.959Z,1.78
2023-05-10T09:04:13.064Z,1.56
2023-05-10T09:05:13.022Z,1.72
2023-05-10T09:06:13.001Z,1.43
2023-05-10T09:07:12.992Z,1.22
2023-05-10T09:08:13.060Z,1.77
2023-05-10T09:09:13.045Z,1.54
2023-05-10T09:10:13.068Z,1.14
2023-05-10T09:11:13.058Z,1.18
2023-05-10T09:12:13.074Z,1.12
2023-05-10T09:13:13.107Z,1.45
2023-05-10T09:14:13.206Z,1.38
2023-05-10T09:15:13.214Z,1.69
2023-05-10T09:16:20.938Z,1.38
2023-05-10T09:17:14.259Z,1.40
2023-05-10T09:18:13.395Z,1.20
2023-05-10T09:19:13.390Z,0.88
2023-05-10T09:20:13.495Z,0.97
2023-05-10T09:21:13.297Z,1.33
2023-05-10T09:22:13.229Z,1.45
2023-05-10T09:23:13.250Z,1.07
2023-05-10T09:24:13.230Z,1.03
2023-05-10T09:25:13.245Z,0.94
2023-05-10T09:26:13.305Z,0.89
2023-05-10T09:27:13.363Z,1.05
2023-05-10T09:28:13.233Z,1.02
2023-05-10T09:29:14.669Z,0.83
2023-05-10T09:30:13.213Z,0.71
2023-05-10T09:31:13.334Z,0.78
2023-05-10T09:32:13.785Z,0.78
2023-05-10T09:33:13.243Z,1.24
2023-05-10T09:34:13.242Z,0.64
2023-05-10T09:35:13.253Z,0.83
2023-05-10T09:36:13.320Z,0.72
2023-05-10T09:37:13.274Z,0.75
2023-05-10T09:38:13.392Z,0.96
2023-05-10T09:39:13.359Z,0.85
2023-05-10T09:40:14.160Z,1.27
2023-05-10T09:41:13.446Z,1.67
2023-05-10T09:42:13.516Z,1.44
2023-05-10T09:43:13.501Z,0.89
2023-05-10T09:44:13.548Z,0.92
2023-05-10T09:45:13.628Z,0.83
2023-05-10T09:46:13.686Z,1.55
2023-05-10T09:47:13.615Z,1.92
2023-05-10T09:48:13.711Z,1.24
2023-05-10T09:49:13.796Z,1.02
2023-05-10T09:50:13.899Z,0.98
2023-05-10T09:51:13.897Z,0.62
2023-05-10T09:52:13.866Z,0.60
2023-05-10T09:53:13.873Z,0.52
2023-05-10T09:54:13.916Z,0.44
2023-05-10T09:55:14.083Z,0.47
2023-05-10T09:56:13.899Z,0.34
2023-05-10T09:57:14.214Z,0.40
2023-05-10T09:58:13.884Z,0.46
2023-05-10T09:59:13.871Z,0.48
2023-05-10T10:00:13.895Z,0.51
2023-05-10T10:01:13.938Z,0.55
2023-05-10T10:02:13.983Z,0.50
2023-05-10T10:03:13.881Z,0.51
2023-05-10T10:04:13.938Z,0.52
2023-05-10T10:05:14.010Z,0.50
2023-05-10T10:06:26.457Z,0.50
2023-05-10T10:07:14.951Z,0.43
2023-05-10T10:08:14.067Z,0.46
2023-05-10T10:09:13.936Z,0.38
2023-05-10T10:10:13.930Z,0.37
2023-05-10T10:11:13.959Z,0.48
2023-05-10T10:12:13.927Z,0.49
2023-05-10T10:13:13.950Z,0.54
2023-05-10T10:14:14.069Z,0.55
2023-05-10T10:15:16.507Z,0.74
2023-05-10T10:16:14.050Z,0.80
2023-05-10T10:17:13.944Z,1.19
2023-05-10T10:18:13.915Z,2.11
2023-05-10T10:19:13.907Z,3.12
2023-05-10T10:20:14.253Z,3.81
2023-05-10T10:21:13.922Z,3.85
2023-05-10T10:22:13.914Z,4.27
2023-05-10T10:23:15.831Z,3.33
2023-05-10T10:24:13.888Z,3.33
2023-05-10T10:25:13.938Z,2.72
2023-05-10T10:26:13.886Z,2.79
2023-05-10T10:27:13.892Z,1.57
2023-05-10T10:28:13.891Z,1.56
2023-05-10T10:29:13.918Z,2.29
2023-05-10T10:30:13.975Z,2.78
2023-05-10T10:31:13.879Z,3.22
2023-05-10T10:32:13.860Z,3.44
2023-05-10T10:33:27.243Z,3.88
2023-05-10T10:34:14.859Z,3.36
2023-05-10T10:35:13.844Z,3.46
2023-05-10T10:36:13.849Z,3.73
2023-05-10T10:37:13.854Z,4.09
2023-05-10T10:38:13.810Z,4.54
2023-05-10T10:39:13.853Z,4.93
2023-05-10T10:40:13.777Z,5.85
2023-05-10T10:41:13.779Z,5.92
2023-05-10T10:42:13.776Z,6.88
2023-05-10T10:43:13.847Z,6.69
2023-05-10T10:44:13.737Z,7.06
2023-05-10T10:45:13.899Z,7.48
2023-05-10T10:46:13.726Z,6.39
2023-05-10T10:47:13.715Z,5.80
2023-05-10T10:48:13.710Z,5.67
2023-05-10T10:49:13.724Z,5.99
2023-05-10T10:50:13.706Z,5.84
2023-05-10T10:51:13.660Z,6.55
2023-05-10T10:52:13.663Z,6.80
2023-05-10T10:53:13.674Z,6.43
2023-05-10T10:54:13.679Z,6.04
2023-05-10T10:55:13.634Z,5.77
2023-05-10T10:56:13.659Z,5.19
2023-05-10T10:57:13.599Z,5.82
2023-05-10T10:58:13.589Z,5.12
2023-05-10T10:59:13.576Z,3.47
2023-05-10T11:00:13.576Z,4.26
2023-05-10T11:01:13.633Z,4.49
2023-05-10T11:02:13.586Z,3.16
2023-05-10T11:03:13.633Z,3.81
2023-05-10T11:04:14.046Z,4.07
2023-05-10T11:05:13.718Z,4.33
2023-05-10T11:06:13.723Z,4.64
2023-05-10T11:07:13.759Z,4.85
2023-05-10T11:08:13.756Z,4.85
2023-05-10T11:09:13.725Z,2.29
2023-05-10T11:10:13.716Z,1.65
2023-05-10T11:11:13.725Z,2.46
2023-05-10T11:12:13.812Z,1.40
2023-05-10T11:13:13.704Z,2.23
2023-05-10T11:14:14.570Z,1.21
2023-05-10T11:15:13.692Z,1.96
2023-05-10T11:16:13.691Z,2.62
2023-05-10T11:17:13.739Z,2.84
2023-05-10T11:18:13.710Z,2.80
2023-05-10T11:19:13.799Z,2.15
2023-05-10T11:20:13.729Z,2.03
2023-05-10T11:21:14.052Z,2.32
2023-05-10T11:22:13.612Z,0.73
2023-05-10T11:23:13.674Z,0.60
2023-05-10T11:24:13.725Z,0.38
2023-05-10T11:25:13.628Z,0.74
2023-05-10T11:26:13.615Z,1.09
2023-05-10T11:27:14.229Z,1.42
2023-05-10T11:28:13.616Z,2.01
2023-05-10T11:29:13.622Z,4.19
2023-05-10T11:30:13.841Z,5.62
2023-05-10T11:31:13.733Z,6.54
2023-05-10T11:32:13.779Z,8.36
2023-05-10T11:33:13.731Z,10.76
2023-05-10T11:34:13.797Z,11.54
2023-05-10T11:35:13.765Z,12.64
2023-05-10T11:36:13.798Z,13.30
2023-05-10T11:37:13.818Z,13.40
2023-05-10T11:38:13.814Z,14.57
2023-05-10T11:39:13.851Z,14.21
2023-05-10T11:40:13.891Z,14.27
2023-05-10T11:41:13.888Z,13.58
2023-05-10T11:42:13.886Z,13.93
2023-05-10T11:43:13.877Z,13.44
2023-05-10T11:44:13.893Z,14.25
2023-05-10T11:45:13.893Z,13.59
2023-05-10T11:46:13.937Z,13.15
2023-05-10T11:47:13.919Z,13.15
2023-05-10T11:48:13.925Z,13.31
2023-05-10T11:49:13.884Z,13.28
2023-05-10T11:50:14.003Z,13.27
2023-05-10T11:51:13.881Z,13.67
2023-05-10T11:52:13.872Z,12.85
2023-05-10T11:53:13.953Z,12.30
2023-05-10T11:54:13.870Z,11.91
2023-05-10T11:55:13.879Z,12.07
2023-05-10T11:56:13.839Z,12.05
2023-05-10T11:57:13.992Z,12.08
2023-05-10T11:58:13.855Z,11.30
2023-05-10T11:59:13.840Z,11.36
2023-05-10T12:00:13.927Z,11.35
2023-05-10T12:01:13.849Z,10.55
2023-05-10T12:02:13.819Z,10.50
2023-05-10T12:03:13.978Z,11.12
2023-05-10T12:04:14.043Z,10.26
2023-05-10T12:05:13.815Z,10.50
2023-05-10T12:06:14.191Z,10.33
2023-05-10T12:07:13.828Z,10.36
2023-05-10T12:08:13.820Z,9.87
2023-05-10T12:09:13.791Z,10.17
2023-05-10T12:10:13.862Z,9.62
2023-05-10T12:11:13.826Z,9.53
2023-05-10T12:12:13.781Z,8.51
2023-05-10T12:13:13.763Z,8.62
2023-05-10T12:14:14.758Z,8.23
2023-05-10T12:15:13.932Z,8.54
2023-05-10T12:16:13.833Z,8.35
2023-05-10T12:17:13.767Z,8.14
2023-05-10T12:18:13.809Z,8.18
2023-05-10T12:19:13.799Z,8.19
2023-05-10T12:20:13.828Z,8.18
2023-05-10T12:21:13.809Z,8.39
2023-05-10T12:22:13.766Z,8.50
2023-05-10T12:23:13.793Z,7.78
2023-05-10T12:24:13.831Z,7.57
2023-05-10T12:25:13.805Z,7.96
2023-05-10T12:26:13.839Z,7.50
2023-05-10T12:27:13.909Z,7.52
2023-05-10T12:28:13.862Z,7.24
2023-05-10T12:29:13.878Z,7.23
2023-05-10T12:30:13.889Z,7.09
2023-05-10T12:31:13.945Z,7.14
2023-05-10T12:32:14.131Z,7.19
2023-05-10T12:33:14.023Z,6.91
2023-05-10T12:34:13.946Z,6.79
2023-05-10T12:35:13.963Z,6.66
2023-05-10T12:36:13.983Z,6.68
2023-05-10T12:37:14.001Z,6.52
2023-05-10T12:38:14.021Z,6.53
2023-05-10T12:39:14.041Z,6.33
2023-05-10T12:40:14.051Z,6.07
2023-05-10T12:41:14.139Z,6.32
2023-05-10T12:42:14.082Z,5.78
2023-05-10T12:43:14.095Z,6.08
2023-05-10T12:44:14.113Z,6.16
2023-05-10T12:45:14.120Z,5.63
2023-05-10T12:46:14.159Z,6.15
2023-05-10T12:47:14.134Z,5.89
2023-05-10T12:48:14.185Z,5.86
2023-05-10T12:49:14.248Z,5.72
2023-05-10T12:50:14.365Z,5.97
2023-05-10T12:51:14.276Z,5.84
2023-05-10T12:52:14.257Z,5.77
2023-05-10T12:53:14.260Z,5.85
2023-05-10T12:54:14.282Z,5.62
2023-05-10T12:55:14.338Z,5.81
2023-05-10T12:56:14.333Z,5.62
2023-05-10T12:57:14.341Z,5.70
2023-05-10T12:58:27.529Z,5.92
2023-05-10T12:59:15.490Z,5.76
2023-05-10T13:00:14.494Z,5.75
2023-05-10T13:01:14.387Z,5.62
2023-05-10T13:02:14.335Z,5.47
2023-05-10T13:03:14.331Z,5.48
2023-05-10T13:04:14.392Z,5.63
2023-05-10T13:05:14.353Z,5.72
2023-05-10T13:06:14.312Z,5.24
2023-05-10T13:07:14.320Z,5.28
2023-05-10T13:08:14.339Z,5.45
2023-05-10T13:09:14.308Z,5.54
2023-05-10T13:10:14.364Z,5.35
2023-05-10T13:11:14.277Z,5.30
2023-05-10T13:12:14.296Z,5.01
2023-05-10T13:13:14.270Z,5.27
2023-05-10T13:14:14.282Z,5.10
2023-05-10T13:15:14.263Z,5.19
2023-05-10T13:16:14.273Z,5.16
2023-05-10T13:17:14.285Z,5.07
2023-05-10T13:18:14.369Z,4.99
2023-05-10T13:19:14.390Z,5.13